Time;durP1;ratioP1;P1;durP2;ratioP2;P2;SDS_P1;SDS_P2;PMS_P1;PMS_P2;Temp;Humidity;BMP_temperature;BMP_pressure;BME280_temperature;BME280_humidity;BME280_pressure;Samples;Min_cycle;Max_cycle;Signal;HPM_P1;HPM_P2
2022/12/28 00:00:14;;;;;;;2.23;1.37;;;;;;;3.69;96.40;101364.69;6128965;28;20384;-75
2022/12/28 00:03:09;;;;;;;6.10;1.70;;;;;;;3.65;95.70;101347.41;6128790;28;20025;-78
2022/12/28 00:06:06;;;;;;;3.30;1.73;;;;;;;3.64;95.27;101340.50;6127542;28;20048;-76
2022/12/28 00:09:01;;;;;;;4.35;1.70;;;;;;;3.74;95.59;101342.50;6126794;28;20047;-76
2022/12/28 00:11:56;;;;;;;3.20;1.70;;;;;;;3.74;95.12;101350.38;6118738;28;20033;-74
2022/12/28 00:14:52;;;;;;;7.87;2.40;;;;;;;3.66;94.80;101338.63;6124405;28;20746;-76
2022/12/28 00:17:47;;;;;;;5.17;1.93;;;;;;;3.71;94.80;101332.19;6127754;28;20032;-76
2022/12/28 00:20:42;;;;;;;5.77;2.20;;;;;;;3.77;95.03;101326.59;6126737;28;20052;-75
2022/12/28 00:23:38;;;;;;;3.43;1.87;;;;;;;3.74;94.75;101320.69;6123370;28;20610;-74
2022/12/28 00:26:34;;;;;;;4.30;1.93;;;;;;;3.79;94.42;101329.13;6121922;28;20050;-76
2022/12/28 00:29:29;;;;;;;7.30;1.90;;;;;;;3.71;94.92;101315.59;6127436;28;20036;-76
2022/12/28 00:32:25;;;;;;;4.90;2.10;;;;;;;3.76;95.26;101332.75;6124834;28;20035;-79
2022/12/28 00:35:20;;;;;;;9.05;2.35;;;;;;;3.71;94.77;101315.59;6125699;28;20392;-77
2022/12/28 00:38:15;;;;;;;4.60;2.00;;;;;;;3.64;94.58;101294.16;6126422;28;20066;-76
2022/12/28 00:41:11;;;;;;;6.13;2.40;;;;;;;3.67;94.42;101287.88;6126449;28;20051;-76
2022/12/28 00:44:06;;;;;;;6.38;2.20;;;;;;;3.57;94.68;101277.91;6125023;28;20024;-76
2022/12/28 00:47:01;;;;;;;3.63;1.87;;;;;;;3.66;95.51;101296.66;6118293;28;20044;-78
2022/12/28 00:49:58;;;;;;;6.90;2.40;;;;;;;3.68;94.45;101290.41;6116839;28;20101;-78
2022/12/28 00:52:53;;;;;;;7.05;2.33;;;;;;;3.72;94.27;101281.44;6125296;28;20031;-76
2022/12/28 00:55:48;;;;;;;6.80;2.23;;;;;;;3.75;94.23;101268.13;6118140;28;20029;-78
2022/12/28 00:58:44;;;;;;;5.70;2.03;;;;;;;3.62;94.29;101259.28;6124255;28;20490;-74
2022/12/28 01:01:39;;;;;;;8.60;2.53;;;;;;;3.72;94.06;101265.72;6126438;28;20041;-78
2022/12/28 01:04:35;;;;;;;8.47;2.23;;;;;;;3.67;93.69;101259.03;6124835;28;20070;-74
2022/12/28 01:07:30;;;;;;;7.33;2.17;;;;;;;3.63;93.36;101245.25;6125282;28;20028;-74
2022/12/28 01:10:25;;;;;;;5.30;2.57;;;;;;;3.65;94.01;101259.09;6127573;28;20029;-74
2022/12/28 01:13:20;;;;;;;5.88;2.50;;;;;;;3.58;94.24;101253.38;6123821;28;20035;-77
2022/12/28 01:16:24;;;;;;;4.47;1.87;;;;;;;3.48;94.63;101239.09;6123851;28;20391;-75
2022/12/28 01:19:21;;;;;;;9.20;2.45;;;;;;;3.56;94.36;101218.53;6122909;28;20723;-76
2022/12/28 01:22:17;;;;;;;13.43;3.00;;;;;;;3.64;93.82;101235.63;6122443;28;20036;-75
2022/12/28 01:25:12;;;;;;;5.10;2.00;;;;;;;3.61;93.93;101229.59;6122631;28;20486;-76
2022/12/28 01:28:07;;;;;;;7.57;2.17;;;;;;;3.50;94.33;101228.53;6123430;28;20029;-78
2022/12/28 01:31:11;;;;;;;5.27;1.73;;;;;;;3.42;94.72;101215.03;6122579;28;20438;-76
2022/12/28 01:34:06;;;;;;;17.85;2.08;;;;;;;3.53;94.11;101223.13;6123278;28;20943;-77
2022/12/28 01:37:01;;;;;;;8.17;2.27;;;;;;;3.45;93.79;101199.13;6124007;28;20529;-78
2022/12/28 01:39:58;;;;;;;6.37;2.30;;;;;;;3.47;94.62;101198.09;6123361;28;20032;-76
2022/12/28 01:42:53;;;;;;;6.18;2.55;;;;;;;3.49;93.96;101211.97;6122098;28;20035;-75
2022/12/28 01:45:51;;;;;;;6.93;2.20;;;;;;;3.54;94.22;101198.56;6118838;28;20399;-76
2022/12/28 01:49:05;;;;;;;6.45;2.15;;;;;;;3.45;93.76;101178.97;6117739;28;20029;-78
2022/12/28 01:52:11;;;;;;;4.68;1.90;;;;;;;3.45;94.52;101178.97;6122852;28;20032;-78
2022/12/28 01:55:27;;;;;;;5.53;1.63;;;;;;;3.54;94.39;101157.47;6123184;28;20028;-74
2022/12/28 01:58:25;;;;;;;6.80;1.73;;;;;;;3.54;93.88;101160.09;6122553;28;20066;-74
2022/12/28 02:01:20;;;;;;;14.52;1.65;;;;;;;3.56;94.36;101163.47;6121796;28;20422;-77
2022/12/28 02:04:16;;;;;;;4.45;1.50;;;;;;;3.53;93.74;101147.09;6121835;28;20078;-74
2022/12/28 02:07:13;;;;;;;9.63;2.13;;;;;;;3.71;93.82;101150.41;6124814;28;20033;-78
2022/12/28 02:10:09;;;;;;;4.72;1.75;;;;;;;3.75;92.83;101141.41;6123546;28;20035;-76
2022/12/28 02:13:05;;;;;;;5.88;2.45;;;;;;;3.66;93.36;101119.22;6117344;28;20447;-76
2022/12/28 02:16:04;;;;;;;5.70;1.90;;;;;;;3.70;93.17;101120.69;6123929;28;20039;-75
2022/12/28 02:18:59;;;;;;;4.97;2.03;;;;;;;3.74;93.52;101118.75;6124228;28;20033;-76
2022/12/28 02:22:21;;;;;;;10.35;2.25;;;;;;;3.69;93.32;101097.22;6124403;28;20036;-75
2022/12/28 02:25:28;;;;;;;4.43;2.15;;;;;;;3.78;92.41;101096.66;6124561;28;20032;-77
2022/12/28 02:29:05;;;;;;;8.05;2.10;;;;;;;3.83;93.57;101094.59;6112119;28;20395;-75
2022/12/28 02:32:14;;;;;;;5.03;2.50;;;;;;;3.85;93.24;101090.09;6124781;28;20093;-73
2022/12/28 02:35:37;;;;;;;8.25;2.20;;;;;;;3.89;92.40;101089.78;6110156;28;20067;-75
2022/12/28 02:38:36;;;;;;;5.07;2.10;;;;;;;3.97;92.45;101086.69;6121397;28;20404;-74
2022/12/28 02:41:32;;;;;;;6.68;2.35;;;;;;;3.95;92.24;101078.09;6122674;28;20149;-78
2022/12/28 02:51:09;;;;;;;8.63;2.58;;;;;;;4.07;92.39;101051.09;6123055;28;20037;-79
2022/12/28 02:58:17;;;;;;;5.82;2.08;;;;;;;4.09;92.20;101049.22;6113110;28;20048;-75
2022/12/28 03:01:42;;;;;;;6.72;2.25;;;;;;;4.13;91.58;101055.97;6121602;28;20036;-74
2022/12/28 03:04:50;;;;;;;7.90;2.33;;;;;;;4.08;92.58;101048.34;6119154;28;20032;-73
2022/12/28 03:11:15;;;;;;;6.35;2.65;;;;;;;4.15;92.34;101049.69;6109708;28;20068;-75
2022/12/28 03:14:23;;;;;;;10.13;2.92;;;;;;;4.17;92.28;101015.44;6121346;28;20064;-78
2022/12/28 03:33:48;;;;;;;5.93;2.20;;;;;;;4.33;91.53;100997.78;6108115;28;20048;-74
2022/12/28 03:36:53;;;;;;;7.07;2.60;;;;;;;4.32;91.91;100993.44;6126987;28;20445;-76
2022/12/28 03:39:59;;;;;;;4.45;2.17;;;;;;;4.19;92.29;100953.19;6126465;28;20029;-78
2022/12/28 03:46:28;;;;;;;7.38;2.90;;;;;;;4.39;91.72;100947.50;6124438;28;20032;-74
2022/12/28 03:49:24;;;;;;;7.43;2.80;;;;;;;4.38;91.77;100927.44;6126718;28;20115;-77
2022/12/28 03:52:19;;;;;;;8.98;3.42;;;;;;;4.47;91.93;100953.09;6124723;28;20490;-75
2022/12/28 03:55:15;;;;;;;8.63;2.28;;;;;;;4.42;91.76;100936.81;6127952;28;20040;-78
2022/12/28 03:58:10;;;;;;;7.63;2.83;;;;;;;4.54;91.87;100935.97;6127778;28;20470;-75
2022/12/28 04:01:05;;;;;;;8.57;2.30;;;;;;;4.58;92.18;100944.50;6127175;28;20043;-78
2022/12/28 04:04:01;;;;;;;5.03;2.17;;;;;;;4.45;93.88;100935.75;6121716;28;20025;-74
2022/12/28 04:06:56;;;;;;;5.50;2.58;;;;;;;4.55;94.07;100955.19;6127124;28;20029;-76
2022/12/28 04:09:51;;;;;;;8.83;2.73;;;;;;;4.50;94.40;100952.91;6120690;28;20039;-74
2022/12/28 04:12:46;;;;;;;5.70;2.77;;;;;;;4.38;95.25;100919.56;6117644;28;20387;-75
2022/12/28 04:15:42;;;;;;;5.40;2.43;;;;;;;4.44;94.95;100903.41;6127959;28;20111;-74
2022/12/28 04:18:37;;;;;;;12.07;1.93;;;;;;;4.48;95.12;100896.19;6127038;28;20044;-77
2022/12/28 04:21:33;;;;;;;5.28;2.55;;;;;;;4.56;95.41;100899.97;6127519;28;20494;-76
2022/12/28 04:24:28;;;;;;;5.27;2.47;;;;;;;4.56;95.28;100892.09;6125998;28;20040;-75
2022/12/28 04:27:23;;;;;;;6.20;2.13;;;;;;;4.55;95.85;100889.56;6126620;28;20468;-75
2022/12/28 04:30:18;;;;;;;5.90;2.57;;;;;;;4.49;95.73;100868.97;6127274;28;20661;-78
2022/12/28 04:33:14;;;;;;;9.27;2.70;;;;;;;4.55;95.66;100853.66;6126502;28;20162;-75
2022/12/28 04:36:15;;;;;;;6.37;1.83;;;;;;;4.68;94.64;100857.09;6113551;28;20037;-75
2022/12/28 04:39:10;;;;;;;8.82;2.97;;;;;;;4.65;94.47;100833.69;6121012;28;20082;-74
2022/12/28 04:42:05;;;;;;;5.00;2.10;;;;;;;4.64;94.34;100837.28;6128753;28;20032;-75
2022/12/28 04:45:00;;;;;;;5.10;1.90;;;;;;;4.69;94.46;100835.16;6128353;28;20442;-76
2022/12/28 04:47:56;;;;;;;5.77;2.07;;;;;;;4.70;94.76;100820.25;6126683;28;20279;-74
2022/12/28 04:50:52;;;;;;;4.63;1.98;;;;;;;4.73;94.77;100812.97;6128995;28;20522;-75
2022/12/28 04:53:48;;;;;;;6.03;2.53;;;;;;;4.90;93.97;100816.22;6127632;28;20032;-75
2022/12/28 04:56:43;;;;;;;5.78;2.10;;;;;;;4.79;94.48;100788.91;6126347;28;20480;-75
2022/12/28 04:59:39;;;;;;;7.97;2.70;;;;;;;4.87;94.94;100795.41;6115618;28;20097;-75
2022/12/28 05:02:34;;;;;;;6.00;2.10;;;;;;;4.78;95.66;100786.41;6122317;28;20452;-75
2022/12/28 05:05:30;;;;;;;7.78;2.70;;;;;;;4.69;96.40;100771.28;6123317;28;20024;-75
2022/12/28 05:08:25;;;;;;;7.67;2.37;;;;;;;4.72;96.16;100792.09;6124061;28;20130;-75
2022/12/28 05:11:23;;;;;;;6.27;1.80;;;;;;;4.67;97.17;100791.56;6122874;28;20308;-74
2022/12/28 05:14:18;;;;;;;6.93;2.78;;;;;;;4.59;97.22;100763.19;6121088;28;20135;-73
2022/12/28 05:17:14;;;;;;;5.13;2.47;;;;;;;4.65;96.66;100757.53;6123075;28;20036;-76
2022/12/28 05:20:09;;;;;;;8.65;2.13;;;;;;;4.69;96.58;100766.88;6123830;28;20392;-75
2022/12/28 05:23:05;;;;;;;5.50;2.40;;;;;;;4.77;96.46;100768.97;6123449;28;20490;-74
2022/12/28 05:26:00;;;;;;;4.70;1.57;;;;;;;4.79;96.44;100762.66;6109441;28;20064;-77
2022/12/28 05:28:57;;;;;;;4.57;2.83;;;;;;;4.82;96.11;100744.03;6125628;28;20103;-76
2022/12/28 05:31:52;;;;;;;6.22;2.35;;;;;;;4.91;96.05;100749.59;6113000;28;20041;-76
2022/12/28 05:34:47;;;;;;;4.97;1.50;;;;;;;5.05;95.54;100759.97;6125509;28;20026;-75
2022/12/28 05:37:43;;;;;;;5.97;2.30;;;;;;;5.03;96.06;100741.66;6123305;28;20028;-75
2022/12/28 05:40:38;;;;;;;4.77;2.10;;;;;;;5.05;96.28;100746.84;6124298;28;20025;-76
2022/12/28 05:43:33;;;;;;;6.37;1.80;;;;;;;5.19;95.41;100738.78;6123041;28;20041;-74
2022/12/28 05:46:31;;;;;;;5.88;1.83;;;;;;;5.07;95.31;100714.22;6123748;28;20187;-74
2022/12/28 05:49:26;;;;;;;3.63;2.10;;;;;;;5.20;95.01;100729.94;6123039;28;20028;-77
2022/12/28 05:52:21;;;;;;;3.10;1.53;;;;;;;5.13;95.31;100718.22;6124273;28;20381;-74
2022/12/28 05:55:17;;;;;;;5.57;2.30;;;;;;;5.23;94.98;100711.31;6126073;28;20122;-76
2022/12/28 05:58:12;;;;;;;5.90;2.23;;;;;;;5.18;95.34;100705.56;6124740;28;20263;-77
2022/12/28 06:01:13;;;;;;;5.33;2.27;;;;;;;5.20;95.06;100698.41;6125079;28;20468;-75
2022/12/28 06:04:17;;;;;;;3.63;1.95;;;;;;;5.31;95.58;100708.97;6121897;28;20119;-77
2022/12/28 06:07:12;;;;;;;2.83;1.48;;;;;;;5.27;95.50;100707.53;6124325;28;20468;-74
2022/12/28 06:10:08;;;;;;;4.43;2.27;;;;;;;5.27;95.71;100710.97;6126313;28;20078;-74
2022/12/28 06:13:03;;;;;;;5.80;2.50;;;;;;;5.14;95.72;100697.06;6125422;28;20020;-73
2022/12/28 06:16:04;;;;;;;6.60;2.83;;;;;;;5.25;95.85;100701.53;6125866;28;20032;-76
2022/12/28 06:19:04;;;;;;;4.93;1.95;;;;;;;5.27;95.61;100700.47;6123141;28;20360;-75
2022/12/28 06:21:59;;;;;;;4.78;2.65;;;;;;;5.24;96.13;100690.19;6125882;28;20122;-74
2022/12/28 06:24:54;;;;;;;6.97;2.40;;;;;;;5.24;96.69;100684.94;6123779;28;20047;-74
2022/12/28 06:27:49;;;;;;;7.13;1.90;;;;;;;5.19;97.47;100681.78;6126703;28;20040;-76
2022/12/28 06:30:45;;;;;;;8.27;2.80;;;;;;;5.11;97.72;100676.25;6125611;28;20048;-75
2022/12/28 06:33:41;;;;;;;7.93;2.70;;;;;;;5.09;97.42;100658.91;6124212;28;20033;-74
2022/12/28 06:36:42;;;;;;;6.53;2.35;;;;;;;5.22;96.99;100680.72;6124688;28;20534;-75
2022/12/28 06:39:37;;;;;;;9.27;2.63;;;;;;;5.20;96.80;100672.13;6124026;28;20036;-79
2022/12/28 06:42:32;;;;;;;7.53;2.70;;;;;;;5.26;96.86;100671.66;6124094;28;20033;-74
2022/12/28 06:45:28;;;;;;;6.77;3.03;;;;;;;5.28;96.14;100654.81;6125715;28;20032;-76
2022/12/28 06:48:23;;;;;;;6.15;2.30;;;;;;;5.29;96.32;100639.91;6122316;28;20029;-76
2022/12/28 06:51:24;;;;;;;4.85;2.13;;;;;;;5.44;96.31;100672.94;6116185;28;20035;-74
2022/12/28 06:54:19;;;;;;;4.72;2.45;;;;;;;5.44;96.48;100657.16;6115526;28;20114;-76
2022/12/28 06:57:15;;;;;;;3.90;2.10;;;;;;;5.37;97.44;100655.94;6128014;28;20054;-75
2022/12/28 07:00:11;;;;;;;7.47;2.37;;;;;;;5.18;98.81;100655.63;6122187;28;20032;-75
2022/12/28 07:03:06;;;;;;;4.45;2.10;;;;;;;5.25;99.73;100664.72;6125777;28;20024;-75
2022/12/28 07:06:03;;;;;;;6.70;2.08;;;;;;;5.12;100.00;100649.03;6126726;28;20090;-74
2022/12/28 07:09:00;;;;;;;9.30;2.20;;;;;;;5.21;100.00;100663.28;6117432;28;20036;-75
2022/12/28 07:11:56;;;;;;;4.85;1.98;;;;;;;5.13;100.00;100653.34;6125032;28;20431;-75
2022/12/28 07:14:51;;;;;;;7.20;3.00;;;;;;;5.03;100.00;100639.19;6126639;28;20046;-74
2022/12/28 07:17:46;;;;;;;8.73;2.80;;;;;;;5.09;100.00;100644.00;6125461;28;20036;-73
2022/12/28 07:20:42;;;;;;;4.70;2.57;;;;;;;5.14;100.00;100651.53;6126554;28;20047;-74
2022/12/28 07:23:37;;;;;;;6.10;2.77;;;;;;;5.24;100.00;100655.19;6123736;28;20412;-75
2022/12/28 07:26:34;;;;;;;5.88;2.40;;;;;;;5.20;100.00;100644.03;6124870;28;20428;-76
2022/12/28 07:29:29;;;;;;;5.95;2.63;;;;;;;5.12;100.00;100628.00;6125544;28;20107;-76
2022/12/28 07:32:25;;;;;;;4.77;2.47;;;;;;;5.16;100.00;100633.88;6125292;28;20399;-74
2022/12/28 07:35:20;;;;;;;5.60;2.47;;;;;;;5.23;100.00;100656.13;6125585;28;20032;-74
2022/12/28 07:38:15;;;;;;;6.30;2.60;;;;;;;5.11;100.00;100636.81;6124708;28;20646;-75
2022/12/28 07:41:13;;;;;;;7.87;2.80;;;;;;;5.19;100.00;100644.16;6123116;28;20117;-75
2022/12/28 07:44:08;;;;;;;7.63;3.10;;;;;;;5.10;100.00;100645.69;6123734;28;20036;-75
2022/12/28 07:47:04;;;;;;;6.63;2.40;;;;;;;5.11;100.00;100630.75;6124103;28;20033;-76
2022/12/28 07:49:59;;;;;;;4.80;2.23;;;;;;;5.17;100.00;100636.38;6122174;28;20032;-75
2022/12/28 07:52:54;;;;;;;6.10;2.83;;;;;;;5.27;100.00;100641.81;6124392;28;20040;-75
2022/12/28 07:55:57;;;;;;;5.72;2.50;;;;;;;5.17;100.00;100625.03;6122786;28;20106;-76
2022/12/28 07:58:57;;;;;;;6.10;3.03;;;;;;;5.34;100.00;100635.13;6124756;28;20028;-75
2022/12/28 08:01:53;;;;;;;8.00;2.25;;;;;;;5.32;100.00;100630.00;6121341;28;20486;-73
2022/12/28 08:04:48;;;;;;;6.57;2.90;;;;;;;5.32;100.00;100634.41;6124763;28;20056;-77
2022/12/28 08:07:43;;;;;;;4.95;2.08;;;;;;;5.35;100.00;100628.94;6124128;28;20089;-77
2022/12/28 08:10:39;;;;;;;6.80;2.70;;;;;;;5.41;100.00;100631.91;6128317;28;20044;-74
2022/12/28 08:13:36;;;;;;;4.47;2.27;;;;;;;5.52;100.00;100604.81;6122735;28;20589;-76
2022/12/28 08:16:35;;;;;;;7.95;2.13;;;;;;;5.51;100.00;100612.84;6125534;28;20486;-76
2022/12/28 08:19:30;;;;;;;6.07;2.20;;;;;;;5.66;100.00;100633.53;6122066;28;20494;-74
2022/12/28 08:22:25;;;;;;;6.43;2.27;;;;;;;5.67;100.00;100624.69;6125050;28;20032;-74
2022/12/28 08:25:20;;;;;;;3.67;1.93;;;;;;;5.71;100.00;100626.13;6125053;28;20032;-73
2022/12/28 08:28:16;;;;;;;3.50;1.80;;;;;;;5.77;100.00;100620.41;6125995;28;20089;-76
2022/12/28 08:31:14;;;;;;;3.85;1.90;;;;;;;5.94;100.00;100630.50;6127152;28;20029;-78
2022/12/28 08:34:25;;;;;;;6.05;1.73;;;;;;;5.94;100.00;100635.78;6129281;28;20060;-73
2022/12/28 08:37:21;;;;;;;5.47;1.77;;;;;;;5.97;100.00;100632.91;6124764;28;20025;-74
2022/12/28 08:40:16;;;;;;;4.47;1.90;;;;;;;6.07;100.00;100624.28;6126000;28;20437;-74
2022/12/28 08:43:12;;;;;;;4.00;1.77;;;;;;;6.07;100.00;100611.13;6121354;28;20025;-75
2022/12/28 08:46:27;;;;;;;5.17;1.70;;;;;;;6.19;100.00;100625.97;6125131;28;20279;-75
2022/12/28 08:49:22;;;;;;;3.65;1.40;;;;;;;6.17;100.00;100617.38;6116776;28;20077;-76
2022/12/28 08:52:18;;;;;;;4.33;1.60;;;;;;;6.34;100.00;100630.00;6121194;28;20477;-74
2022/12/28 08:55:13;;;;;;;3.50;1.60;;;;;;;6.34;100.00;100624.75;6123934;28;20111;-75
2022/12/28 08:58:09;;;;;;;4.43;1.50;;;;;;;6.35;100.00;100615.91;6125155;28;20047;-75
2022/12/28 09:01:06;;;;;;;2.30;1.40;;;;;;;6.43;100.00;100624.03;6122575;28;20108;-76
2022/12/28 09:04:02;;;;;;;2.53;1.30;;;;;;;6.45;100.00;100630.00;6135609;28;20071;-75
2022/12/28 09:06:57;;;;;;;4.88;1.55;;;;;;;6.58;99.59;100628.06;6125265;28;20033;-74
2022/12/28 09:09:53;;;;;;;3.20;1.30;;;;;;;6.69;99.37;100629.84;6131016;28;20029;-74
2022/12/28 09:12:48;;;;;;;4.57;1.37;;;;;;;6.66;98.84;100614.28;6130982;28;20289;-75
2022/12/28 09:15:43;;;;;;;3.07;1.60;;;;;;;6.77;98.60;100619.50;6127420;28;20119;-75
2022/12/28 09:18:40;;;;;;;3.80;1.17;;;;;;;6.74;98.36;100596.88;6125646;28;20360;-74
2022/12/28 09:21:37;;;;;;;2.88;1.27;;;;;;;6.90;97.73;100618.38;6126195;28;20047;-78
2022/12/28 09:24:32;;;;;;;2.60;1.20;;;;;;;6.93;97.35;100607.59;6123993;28;20037;-76
2022/12/28 09:27:27;;;;;;;4.13;1.40;;;;;;;6.99;97.24;100609.75;6126110;28;20036;-77
2022/12/28 09:30:23;;;;;;;2.77;1.10;;;;;;;7.06;97.16;100618.84;6124634;28;20044;-76
2022/12/28 09:36:34;;;;;;;2.88;1.48;;;;;;;7.07;97.30;100620.50;6125970;28;20063;-75
2022/12/28 09:39:29;;;;;;;2.17;1.00;;;;;;;7.12;97.31;100618.31;6122240;28;20101;-76
2022/12/28 09:42:27;;;;;;;2.35;1.13;;;;;;;7.11;97.08;100619.28;6120317;28;20445;-75
2022/12/28 09:45:24;;;;;;;2.38;1.73;;;;;;;7.14;97.42;100624.31;6122113;28;20036;-75
2022/12/28 09:48:22;;;;;;;2.58;1.38;;;;;;;7.11;97.53;100627.19;6119064;28;20037;-75
2022/12/28 09:51:17;;;;;;;2.15;1.02;;;;;;;7.13;97.72;100625.28;6121281;28;20119;-75
2022/12/28 09:54:13;;;;;;;2.08;1.10;;;;;;;7.12;97.83;100615.69;6120835;28;20042;-77
2022/12/28 09:57:13;;;;;;;1.52;0.80;;;;;;;7.32;97.65;100623.75;6121245;28;20063;-74
2022/12/28 10:00:24;;;;;;;3.35;1.30;;;;;;;7.28;97.84;100620.53;6150200;28;20075;-77
2022/12/28 10:03:22;;;;;;;3.78;1.05;;;;;;;7.25;97.49;100618.16;6120033;28;20036;-74
2022/12/28 10:06:24;;;;;;;3.67;1.15;;;;;;;7.31;97.49;100614.16;6120649;28;20033;-75
2022/12/28 10:09:25;;;;;;;3.35;1.10;;;;;;;7.44;97.85;100623.56;6124546;28;20036;-74
2022/12/28 10:12:23;;;;;;;3.58;1.20;;;;;;;7.49;97.60;100617.91;6119709;28;20464;-77
2022/12/28 10:15:21;;;;;;;2.70;1.20;;;;;;;7.49;97.62;100615.25;6110857;28;20115;-77
2022/12/28 10:18:22;;;;;;;3.03;1.05;;;;;;;7.55;97.57;100604.19;6121097;28;21880;-75
2022/12/28 10:21:19;;;;;;;1.48;0.90;;;;;;;7.57;97.58;100597.81;6121910;28;20037;-76
2022/12/28 10:24:15;;;;;;;2.05;0.98;;;;;;;7.60;97.57;100588.81;6120676;28;20032;-77
2022/12/28 10:27:28;;;;;;;2.70;0.85;;;;;;;7.75;97.73;100616.53;6120588;28;20395;-76
2022/12/28 10:30:25;;;;;;;1.15;0.70;;;;;;;7.71;97.78;100594.03;6123356;28;20094;-75
2022/12/28 10:33:21;;;;;;;1.98;0.90;;;;;;;7.83;97.84;100600.88;6123038;28;20121;-76
2022/12/28 10:36:17;;;;;;;1.83;0.90;;;;;;;7.96;97.56;100608.59;6119379;28;20049;-75
2022/12/28 10:39:22;;;;;;;3.22;0.75;;;;;;;7.95;97.51;100599.00;6120972;28;20464;-78
2022/12/28 10:42:39;;;;;;;1.00;0.55;;;;;;;7.85;98.11;100596.31;6117486;28;20074;-74
2022/12/28 10:45:39;;;;;;;1.38;0.80;;;;;;;7.84;98.79;100599.06;6143664;28;20032;-77
2022/12/28 10:48:37;;;;;;;0.85;0.60;;;;;;;7.91;98.83;100589.69;6116474;28;20044;-75
2022/12/28 10:51:39;;;;;;;1.42;0.77;;;;;;;7.90;98.94;100583.56;6119800;28;20028;-76
2022/12/28 10:54:35;;;;;;;1.98;0.80;;;;;;;8.06;99.18;100589.19;6117988;28;20135;-76
2022/12/28 10:57:31;;;;;;;4.50;0.60;;;;;;;8.08;98.81;100576.66;6120973;28;20033;-78
2022/12/28 11:00:26;;;;;;;1.05;0.60;;;;;;;8.13;98.56;100573.63;6117382;28;20028;-75
2022/12/28 11:03:27;;;;;;;2.33;0.82;;;;;;;8.20;98.58;100574.78;6120352;28;20029;-78
2022/12/28 11:06:25;;;;;;;1.23;0.60;;;;;;;8.20;98.46;100580.06;6120537;28;20443;-76
2022/12/28 11:09:26;;;;;;;1.38;0.60;;;;;;;8.19;98.56;100578.38;6122546;28;20407;-78
2022/12/28 11:12:23;;;;;;;0.88;0.50;;;;;;;8.09;98.51;100570.44;6119609;28;20460;-78
2022/12/28 11:15:27;;;;;;;0.82;0.63;;;;;;;8.16;98.69;100568.91;6119768;28;20119;-75
2022/12/28 11:18:22;;;;;;;1.73;0.73;;;;;;;8.08;99.09;100568.75;6146350;28;20036;-74
2022/12/28 11:21:20;;;;;;;1.70;0.75;;;;;;;8.16;98.84;100568.06;6120252;28;20028;-75
2022/12/28 11:24:16;;;;;;;2.38;0.73;;;;;;;8.12;98.67;100558.75;6115917;28;20032;-76
2022/12/28 11:27:15;;;;;;;0.88;0.57;;;;;;;8.16;98.66;100568.06;6119589;28;20119;-75
2022/12/28 11:30:18;;;;;;;0.68;0.47;;;;;;;8.15;98.16;100535.53;6118763;28;20082;-75
2022/12/28 11:33:25;;;;;;;2.90;1.20;;;;;;;8.21;98.49;100561.41;6118910;28;20037;-75
2022/12/28 11:36:23;;;;;;;1.42;0.90;;;;;;;8.24;98.83;100542.66;6119157;28;20032;-77
2022/12/28 11:39:24;;;;;;;4.68;1.55;;;;;;;8.26;98.70;100558.41;6120951;28;20552;-75
2022/12/28 11:42:35;;;;;;;0.95;0.45;;;;;;;8.27;98.40;100546.88;6118322;28;20036;-76
2022/12/28 11:45:52;;;;;;;1.38;0.70;;;;;;;8.15;99.09;100540.00;6117872;28;20051;-77
2022/12/28 11:48:53;;;;;;;3.40;1.38;;;;;;;8.03;99.89;100554.28;6117309;28;20047;-74
2022/12/28 11:52:15;;;;;;;2.08;0.80;;;;;;;7.86;100.00;100524.06;6120866;28;20033;-78
2022/12/28 11:55:36;;;;;;;1.90;0.80;;;;;;;8.01;100.00;100550.94;6122219;28;20028;-74
2022/12/28 11:58:39;;;;;;;2.38;1.25;;;;;;;7.94;100.00;100536.59;6122384;28;20032;-75
2022/12/28 12:01:39;;;;;;;2.03;0.90;;;;;;;7.99;100.00;100540.50;6123924;28;20052;-76
2022/12/28 12:04:38;;;;;;;2.35;1.10;;;;;;;7.93;100.00;100532.28;6123673;28;20024;-75
2022/12/28 12:07:45;;;;;;;5.28;2.00;;;;;;;7.79;100.00;100531.69;6126687;28;20028;-79
2022/12/28 12:11:21;;;;;;;2.10;1.00;;;;;;;7.80;100.00;100532.50;6120802;28;20029;-76
2022/12/28 12:14:26;;;;;;;1.98;1.20;;;;;;;7.76;100.00;100531.94;6105792;28;20426;-77
2022/12/28 12:17:47;;;;;;;2.30;1.15;;;;;;;7.79;100.00;100530.84;6122913;28;20067;-77
2022/12/28 12:20:48;;;;;;;2.55;1.02;;;;;;;7.80;100.00;100521.94;6122791;28;20093;-78
2022/12/28 12:23:51;;;;;;;4.47;1.90;;;;;;;7.74;100.00;100525.13;6122113;28;20395;-78
2022/12/28 12:26:52;;;;;;;2.30;1.17;;;;;;;7.77;100.00;100530.16;6123339;28;20024;-79
2022/12/28 12:29:57;;;;;;;2.67;1.10;;;;;;;7.76;100.00;100513.47;6123661;28;20032;-77
2022/12/28 12:32:56;;;;;;;4.30;0.90;;;;;;;7.75;100.00;100501.25;6120969;28;20029;-78
2022/12/28 12:36:25;;;;;;;2.75;1.08;;;;;;;7.90;100.00;100514.91;6121128;28;20056;-77
2022/12/28 12:39:50;;;;;;;4.03;0.90;;;;;;;7.96;100.00;100514.38;6124207;28;20078;-77
2022/12/28 12:43:03;;;;;;;1.58;0.90;;;;;;;8.05;100.00;100516.19;6123130;28;20497;-79
2022/12/28 12:46:20;;;;;;;1.55;0.70;;;;;;;8.08;100.00;100510.66;6124900;28;20024;-77
2022/12/28 12:49:30;;;;;;;1.02;0.60;;;;;;;8.10;100.00;100508.69;6124540;28;20430;-79
2022/12/28 12:52:33;;;;;;;2.08;0.70;;;;;;;8.14;100.00;100507.47;6123092;28;20052;-79
2022/12/28 12:56:03;;;;;;;1.30;0.60;;;;;;;8.19;100.00;100507.06;6121895;28;20024;-77
2022/12/28 12:59:33;;;;;;;1.42;0.73;;;;;;;8.16;100.00;100496.75;6121324;28;20094;-79
2022/12/28 13:02:54;;;;;;;1.70;0.80;;;;;;;8.20;100.00;100496.38;6131766;28;20418;-78
2022/12/28 13:05:53;;;;;;;1.35;0.70;;;;;;;8.19;100.00;100499.97;6120969;28;20594;-77
2022/12/28 13:08:52;;;;;;;1.17;0.60;;;;;;;8.17;100.00;100483.44;6122748;28;20071;-76
2022/12/28 13:11:47;;;;;;;0.98;0.70;;;;;;;8.19;100.00;100494.69;6122124;28;20036;-78
2022/12/28 13:14:45;;;;;;;1.10;0.70;;;;;;;8.19;100.00;100476.22;6122413;28;20472;-79
2022/12/28 13:18:13;;;;;;;2.25;0.93;;;;;;;8.30;100.00;100485.84;6123094;28;20047;-79
2022/12/28 13:21:17;;;;;;;1.05;0.60;;;;;;;8.31;100.00;100475.16;6122533;28;20081;-78
2022/12/28 13:24:21;;;;;;;1.95;0.45;;;;;;;8.35;100.00;100481.81;6122756;28;20031;-78
2022/12/28 13:27:18;;;;;;;0.80;0.50;;;;;;;8.35;99.85;100465.97;6124060;28;20089;-76
2022/12/28 13:30:17;;;;;;;1.48;0.70;;;;;;;8.37;99.22;100461.38;6124869;28;20032;-79
2022/12/28 13:33:19;;;;;;;1.27;0.80;;;;;;;8.45;98.86;100463.34;6122829;28;20059;-78
2022/12/28 13:36:17;;;;;;;1.10;0.70;;;;;;;8.46;98.45;100453.59;6123814;28;20422;-77
2022/12/28 13:39:13;;;;;;;1.75;0.63;;;;;;;8.41;97.62;100434.69;6122795;28;20035;-76
2022/12/28 13:42:16;;;;;;;7.82;1.40;;;;;;;8.55;97.80;100458.06;6123231;28;20036;-76
2022/12/28 13:45:14;;;;;;;1.60;0.70;;;;;;;8.51;97.95;100456.66;6121671;28;20033;-79
2022/12/28 13:48:09;;;;;;;2.10;0.80;;;;;;;8.46;97.79;100449.16;6122851;28;20032;-76
2022/12/28 13:51:08;;;;;;;1.00;0.60;;;;;;;8.54;97.42;100464.31;6122408;28;20051;-78
2022/12/28 13:54:04;;;;;;;1.60;0.80;;;;;;;8.57;97.15;100456.09;6120554;28;20434;-76
2022/12/28 13:56:59;;;;;;;1.48;0.73;;;;;;;8.57;96.73;100448.16;6123411;28;20028;-79
2022/12/28 13:59:55;;;;;;;2.95;1.30;;;;;;;8.61;96.52;100457.50;6123723;28;20051;-76
2022/12/28 14:02:52;;;;;;;0.88;0.60;;;;;;;8.54;96.64;100445.81;6122821;28;20087;-78
2022/12/28 14:05:50;;;;;;;1.13;0.68;;;;;;;8.58;96.28;100450.69;6122953;28;20112;-76
2022/12/28 14:08:45;;;;;;;1.40;0.60;;;;;;;8.64;96.21;100452.75;6122925;28;20033;-78
2022/12/28 14:11:42;;;;;;;0.98;0.55;;;;;;;8.55;96.47;100442.19;6122085;28;20035;-76
2022/12/28 14:14:39;;;;;;;1.80;0.90;;;;;;;8.54;96.62;100436.06;6121851;28;20086;-79
2022/12/28 14:17:36;;;;;;;2.75;1.02;;;;;;;8.40;96.98;100433.03;6116406;28;20042;-78
2022/12/28 14:20:31;;;;;;;1.75;1.10;;;;;;;8.36;97.58;100435.94;6113516;28;20223;-76
2022/12/28 14:23:29;;;;;;;3.50;1.60;;;;;;;8.27;97.64;100434.13;6116984;28;20056;-79
2022/12/28 14:26:24;;;;;;;2.20;1.02;;;;;;;8.17;97.60;100441.19;6119836;28;20020;-77
2022/12/28 14:29:33;;;;;;;2.78;1.23;;;;;;;8.17;97.58;100435.91;6119110;28;20047;-76
2022/12/28 14:32:28;;;;;;;3.50;0.98;;;;;;;8.29;96.99;100453.31;6118965;28;20025;-77
2022/12/28 14:35:25;;;;;;;5.20;1.47;;;;;;;8.19;97.07;100441.88;6117458;28;20040;-77
2022/12/28 14:38:23;;;;;;;3.08;1.50;;;;;;;8.20;97.01;100445.34;6116930;28;20083;-77